createdAt,value
2018-04-22T00:01:09.969Z,20.97
2018-04-22T00:03:37.554Z,18.53
2018-04-22T00:06:05.068Z,20.77
2018-04-22T00:08:33.342Z,18.23
2018-04-22T00:11:01.654Z,18.53
2018-04-22T00:13:29.173Z,19.07
2018-04-22T00:15:57.454Z,18.30
2018-04-22T00:18:25.777Z,18.80
2018-04-22T00:20:53.289Z,18.87
2018-04-22T00:23:20.820Z,18.23
2018-04-22T00:25:48.364Z,22.00
2018-04-22T00:28:15.881Z,20.80
2018-04-22T00:30:44.150Z,18.80
2018-04-22T00:33:12.547Z,19.77
2018-04-22T00:35:40.099Z,19.57
2018-04-22T00:38:08.374Z,19.87
2018-04-22T00:40:36.713Z,20.23
2018-04-22T00:43:04.243Z,19.77
2018-04-22T00:45:31.755Z,20.27
2018-04-22T00:47:59.329Z,18.63
2018-04-22T00:50:26.847Z,18.97
2018-04-22T00:52:54.422Z,18.87
2018-04-22T00:55:21.914Z,19.13
2018-04-22T00:57:49.481Z,19.70
2018-04-22T01:00:17.762Z,19.27
2018-04-22T01:02:45.306Z,20.00
2018-04-22T01:05:12.842Z,23.70
2018-04-22T01:07:40.348Z,19.70
2018-04-22T01:10:07.940Z,19.17
2018-04-22T01:12:35.450Z,21.17
2018-04-22T01:15:02.976Z,18.90
2018-04-22T01:17:30.532Z,18.97
2018-04-22T01:19:58.038Z,23.43
2018-04-22T01:22:26.349Z,17.93
2018-04-22T01:24:53.880Z,20.00
2018-04-22T01:27:22.174Z,23.90
2018-04-22T01:29:49.689Z,20.37
2018-04-22T01:32:17.267Z,18.97
2018-04-22T01:34:44.801Z,19.23
2018-04-22T01:37:12.330Z,20.43
2018-04-22T01:39:39.850Z,20.47
2018-04-22T01:42:07.373Z,17.87
2018-04-22T01:44:35.504Z,19.70
2018-04-22T01:47:03.830Z,21.10
2018-04-22T01:49:31.346Z,19.50
2018-04-22T01:51:59.626Z,19.87
2018-04-22T01:54:27.909Z,19.27
2018-04-22T01:56:55.418Z,19.03
2018-04-22T01:59:22.926Z,19.40
2018-04-22T02:01:50.461Z,19.40
2018-04-22T02:04:18.017Z,20.47
2018-04-22T02:06:45.545Z,21.13
2018-04-22T02:09:13.090Z,19.23
2018-04-22T02:11:40.595Z,19.43
2018-04-22T02:14:08.110Z,21.13
2018-04-22T02:16:35.648Z,20.60
2018-04-22T02:19:03.186Z,21.50
2018-04-22T02:21:30.749Z,20.93
2018-04-22T02:23:58.300Z,21.87
2018-04-22T02:26:26.599Z,20.30
2018-04-22T02:28:54.109Z,19.53
2018-04-22T02:31:21.649Z,19.83
2018-04-22T02:33:49.168Z,22.10
2018-04-22T02:36:17.462Z,21.63
2018-04-22T02:38:45.035Z,20.30
2018-04-22T02:41:12.567Z,19.13
2018-04-22T02:43:40.139Z,21.13
2018-04-22T02:46:07.633Z,19.93
2018-04-22T02:48:35.183Z,19.70
2018-04-22T02:51:02.712Z,19.53
2018-04-22T02:53:30.814Z,20.13
2018-04-22T02:55:58.330Z,22.80
2018-04-22T02:58:25.838Z,20.63
2018-04-22T03:00:54.467Z,19.67
2018-04-22T03:03:21.995Z,21.17
2018-04-22T03:05:49.564Z,20.10
2018-04-22T03:08:17.227Z,21.40
2018-04-22T03:10:44.737Z,21.63
2018-04-22T03:13:12.263Z,20.90
2018-04-22T03:15:39.802Z,19.87
2018-04-22T03:18:07.310Z,21.17
2018-04-22T03:20:35.586Z,21.93
2018-04-22T03:23:03.242Z,20.77
2018-04-22T03:25:31.853Z,20.57
2018-04-22T03:27:59.441Z,21.97
2018-04-22T03:30:27.862Z,20.43
2018-04-22T03:32:55.801Z,20.27
2018-04-22T03:35:23.408Z,20.50
2018-04-22T03:37:51.063Z,20.43
2018-04-22T03:40:18.661Z,19.47
2018-04-22T03:42:46.211Z,20.17
2018-04-22T03:45:13.746Z,21.97
2018-04-22T03:47:41.397Z,20.37
2018-04-22T03:50:08.909Z,23.27
2018-04-22T03:52:36.437Z,22.73
2018-04-22T03:55:03.986Z,21.23
2018-04-22T03:57:31.506Z,20.40
2018-04-22T03:59:59.025Z,20.17
2018-04-22T04:02:27.340Z,20.33
2018-04-22T04:04:54.878Z,21.23
2018-04-22T04:07:23.162Z,20.70
2018-04-22T04:09:51.019Z,20.17
2018-04-22T04:12:19.301Z,22.10
2018-04-22T04:14:47.524Z,21.40
2018-04-22T04:17:15.121Z,23.47
2018-04-22T04:19:54.369Z,20.97
2018-04-22T04:22:34.398Z,21.73
2018-04-22T04:28:15.654Z,22.57
2018-04-22T04:30:43.178Z,20.70
2018-04-22T04:33:11.466Z,21.67
2018-04-22T04:35:39.034Z,21.13
2018-04-22T04:38:07.307Z,21.73
2018-04-22T04:40:34.888Z,24.03
2018-04-22T04:43:02.421Z,22.47
2018-04-22T04:45:29.945Z,21.27
2018-04-22T04:47:57.585Z,22.17
2018-04-22T04:50:25.113Z,23.17
2018-04-22T04:52:52.642Z,22.27
2018-04-22T04:55:20.638Z,21.60
2018-04-22T04:57:48.925Z,20.93
2018-04-22T05:00:17.273Z,22.73
2018-04-22T05:02:44.774Z,22.10
2018-04-22T05:05:12.396Z,23.13
2018-04-22T05:07:39.970Z,22.87
2018-04-22T05:10:08.296Z,22.57
2018-04-22T05:12:35.814Z,22.93
2018-04-22T05:15:04.126Z,22.43
2018-04-22T05:17:31.662Z,23.80
2018-04-22T05:19:59.937Z,23.00
2018-04-22T05:22:27.496Z,24.33
2018-04-22T05:24:55.799Z,26.20
2018-04-22T05:27:23.317Z,22.97
2018-04-22T05:29:50.911Z,24.17
2018-04-22T05:32:18.432Z,23.67
2018-04-22T05:34:45.950Z,23.83
2018-04-22T05:37:13.497Z,23.00
2018-04-22T05:39:41.017Z,24.57
2018-04-22T05:42:08.618Z,24.93
2018-04-22T05:44:36.168Z,24.23
2018-04-22T05:47:04.448Z,24.87
2018-04-22T05:49:32.690Z,24.17
2018-04-22T05:52:00.237Z,30.27
2018-04-22T05:54:28.514Z,25.93
2018-04-22T05:56:56.049Z,25.87
2018-04-22T05:59:23.591Z,29.43
2018-04-22T06:01:51.111Z,27.33
2018-04-22T06:04:18.624Z,26.83
2018-04-22T06:06:46.210Z,27.57
2018-04-22T06:09:13.727Z,27.97
2018-04-22T06:11:41.312Z,28.03
2018-04-22T06:14:09.640Z,27.47
2018-04-22T06:16:37.203Z,28.40
2018-04-22T06:19:04.754Z,27.57
2018-04-22T06:21:34.143Z,29.43
2018-04-22T06:24:01.660Z,30.63
2018-04-22T06:26:29.938Z,30.10
2018-04-22T06:28:57.503Z,29.07
2018-04-22T06:31:25.037Z,31.37
2018-04-22T06:33:52.626Z,30.10
2018-04-22T06:36:20.179Z,34.10
2018-04-22T06:38:48.473Z,34.17
2018-04-22T06:41:16.015Z,35.83
2018-04-22T06:43:44.292Z,37.07
2018-04-22T06:46:11.810Z,36.37
2018-04-22T06:48:39.357Z,36.90
2018-04-22T06:51:06.882Z,36.67
2018-04-22T06:53:34.417Z,35.77
2018-04-22T06:56:01.965Z,37.90
2018-04-22T06:58:29.500Z,37.37
2018-04-22T07:00:57.020Z,39.13
2018-04-22T07:03:24.574Z,37.93
2018-04-22T07:05:52.109Z,40.67
2018-04-22T07:08:19.666Z,39.27
2018-04-22T07:10:47.227Z,38.93
2018-04-22T07:13:14.767Z,39.17
2018-04-22T07:15:43.396Z,40.88
2018-04-22T07:18:10.955Z,41.47
2018-04-22T07:20:39.242Z,40.47
2018-04-22T07:23:06.807Z,40.87
2018-04-22T07:25:35.165Z,41.00
2018-04-22T07:28:02.709Z,41.00
2018-04-22T07:30:30.219Z,40.77
2018-04-22T07:32:57.803Z,37.77
2018-04-22T07:35:25.328Z,39.77
2018-04-22T07:37:53.618Z,41.00
2018-04-22T07:40:21.149Z,42.53
2018-04-22T07:42:48.727Z,39.10
2018-04-22T07:45:16.245Z,39.53
2018-04-22T07:47:43.790Z,40.30
2018-04-22T07:50:11.338Z,42.93
2018-04-22T07:52:38.865Z,43.27
2018-04-22T07:55:06.437Z,42.43
2018-04-22T07:57:33.969Z,43.20
2018-04-22T08:00:01.496Z,41.23
2018-04-22T08:02:29.121Z,44.83
2018-04-22T08:04:56.669Z,44.83
2018-04-22T08:07:24.199Z,41.93
2018-04-22T08:09:51.763Z,43.73
2018-04-22T08:12:19.265Z,44.33
2018-04-22T08:14:46.790Z,46.53
2018-04-22T08:17:14.372Z,45.57
2018-04-22T08:19:42.704Z,44.10
2018-04-22T08:22:10.262Z,41.00
2018-04-22T08:24:37.825Z,43.73
2018-04-22T08:27:05.362Z,49.70
2018-04-22T08:29:33.511Z,44.13
2018-04-22T08:32:01.860Z,48.07
2018-04-22T08:34:29.523Z,47.23
2018-04-22T08:36:57.091Z,43.10
2018-04-22T08:39:24.627Z,44.77
2018-04-22T08:41:56.655Z,43.47
2018-04-22T08:44:25.198Z,42.70
2018-04-22T08:46:53.786Z,44.13
2018-04-22T08:49:22.348Z,43.03
2018-04-22T08:51:49.869Z,43.60
2018-04-22T08:54:18.103Z,45.80
2018-04-22T08:56:45.809Z,45.47
2018-04-22T08:59:13.354Z,41.77
2018-04-22T09:01:41.650Z,41.00
2018-04-22T09:04:09.196Z,42.23
2018-04-22T09:06:37.466Z,36.43
2018-04-22T09:09:05.723Z,43.17
2018-04-22T09:11:33.252Z,39.47
2018-04-22T09:14:00.817Z,42.30
2018-04-22T09:16:28.395Z,35.67
2018-04-22T09:18:55.986Z,42.07
2018-04-22T09:21:23.498Z,42.67
2018-04-22T09:23:51.029Z,43.73
2018-04-22T09:26:18.572Z,47.70
2018-04-22T09:28:46.091Z,44.70
2018-04-22T09:31:13.663Z,44.73
2018-04-22T09:33:41.187Z,43.07
2018-04-22T09:36:08.707Z,44.23
2018-04-22T09:38:36.243Z,44.93
2018-04-22T09:41:03.851Z,40.40
2018-04-22T09:43:31.390Z,46.87
2018-04-22T09:45:59.068Z,39.73
2018-04-22T09:48:26.599Z,44.87
2018-04-22T09:50:54.125Z,44.47
2018-04-22T09:53:21.840Z,41.60
2018-04-22T09:55:49.722Z,40.03
2018-04-22T09:58:17.286Z,45.47
2018-04-22T10:00:46.875Z,39.90
2018-04-22T10:03:15.195Z,37.87
2018-04-22T10:05:48.405Z,37.57
2018-04-22T10:08:15.953Z,34.10
2018-04-22T10:10:43.460Z,27.07
2018-04-22T10:13:10.986Z,32.20
2018-04-22T10:15:39.289Z,28.77
2018-04-22T10:18:06.799Z,30.70
2018-04-22T10:20:34.357Z,28.93
2018-04-22T10:23:01.907Z,30.03
2018-04-22T10:25:29.444Z,27.53
2018-04-22T10:27:57.080Z,25.20
2018-04-22T10:30:24.728Z,19.03
2018-04-22T10:32:52.242Z,19.73
2018-04-22T10:35:20.518Z,19.57
2018-04-22T10:37:48.091Z,18.87
2018-04-22T10:40:15.619Z,17.67
2018-04-22T10:42:43.763Z,16.97
2018-04-22T10:45:11.350Z,17.77
2018-04-22T10:47:38.872Z,17.73
2018-04-22T10:50:07.140Z,15.80
2018-04-22T10:52:34.690Z,20.53
2018-04-22T10:55:02.276Z,21.90
2018-04-22T10:57:29.811Z,17.90
2018-04-22T10:59:58.097Z,17.10
2018-04-22T11:02:25.659Z,13.30
2018-04-22T11:04:53.169Z,13.40
2018-04-22T11:07:20.747Z,14.97
2018-04-22T11:09:49.086Z,12.60
2018-04-22T11:12:16.649Z,15.37
2018-04-22T11:14:44.161Z,10.87
2018-04-22T11:17:12.486Z,16.27
2018-04-22T11:19:39.990Z,16.67
2018-04-22T11:22:08.310Z,13.83
2018-04-22T11:24:35.872Z,14.77
2018-04-22T11:27:04.138Z,9.43
2018-04-22T11:29:31.672Z,10.27
2018-04-22T11:32:00.017Z,10.17
2018-04-22T11:34:27.562Z,11.03
2018-04-22T11:36:55.872Z,10.37
2018-04-22T11:39:23.431Z,6.70
2018-04-22T11:41:50.974Z,15.43
2018-04-22T11:44:18.494Z,9.60
2018-04-22T11:46:46.013Z,5.03
2018-04-22T11:49:13.592Z,8.00
2018-04-22T11:51:41.146Z,9.07
2018-04-22T11:54:09.274Z,8.87
2018-04-22T11:56:36.834Z,9.10
2018-04-22T11:59:04.398Z,9.97
2018-04-22T12:01:31.963Z,12.70
2018-04-22T12:03:59.516Z,11.03
2018-04-22T12:06:27.045Z,8.00
2018-04-22T12:08:54.577Z,11.90
2018-04-22T12:11:22.101Z,7.57
2018-04-22T12:13:49.614Z,9.60
2018-04-22T12:16:17.974Z,9.97
2018-04-22T12:18:45.482Z,9.30
2018-04-22T12:21:13.010Z,8.40
2018-04-22T12:23:40.604Z,7.80
2018-04-22T12:26:08.132Z,9.17
2018-04-22T12:28:35.645Z,10.80
2018-04-22T12:31:03.179Z,8.20
2018-04-22T12:33:30.758Z,7.40
2018-04-22T12:35:58.274Z,7.67
2018-04-22T12:38:25.822Z,12.10
2018-04-22T12:40:53.355Z,10.13
2018-04-22T12:43:20.910Z,14.00
2018-04-22T12:45:48.509Z,8.90
2018-04-22T12:48:16.042Z,8.93
2018-04-22T12:50:43.617Z,11.17
2018-04-22T12:53:11.169Z,7.17
2018-04-22T12:55:38.697Z,8.43
2018-04-22T12:58:06.198Z,9.30
2018-04-22T13:00:33.722Z,8.00
2018-04-22T13:03:01.238Z,9.87
2018-04-22T13:05:28.749Z,9.33
2018-04-22T13:07:56.266Z,6.80
2018-04-22T13:10:24.554Z,9.43
2018-04-22T13:12:52.132Z,8.63
2018-04-22T13:15:19.691Z,7.43
2018-04-22T13:17:47.202Z,9.00
2018-04-22T13:20:14.783Z,7.57
2018-04-22T13:22:42.301Z,7.73
2018-04-22T13:25:09.827Z,7.70
2018-04-22T13:27:37.354Z,5.93
2018-04-22T13:30:04.896Z,4.53
2018-04-22T13:32:32.401Z,8.00
2018-04-22T13:35:00.716Z,5.47
2018-04-22T13:37:29.101Z,7.50
2018-04-22T13:39:56.622Z,4.00
2018-04-22T13:44:58.150Z,8.53
2018-04-22T13:47:25.694Z,5.80
2018-04-22T13:49:53.216Z,6.17
2018-04-22T13:52:20.769Z,6.13
2018-04-22T13:54:48.365Z,10.53
2018-04-22T13:57:15.863Z,8.03
2018-04-22T13:59:43.450Z,5.73
2018-04-22T14:02:11.827Z,7.47
2018-04-22T14:04:39.382Z,5.80
2018-04-22T14:07:07.708Z,7.47
2018-04-22T14:09:35.235Z,8.50
2018-04-22T14:12:03.547Z,5.17
2018-04-22T14:14:31.115Z,7.90
2018-04-22T14:16:58.664Z,8.50
2018-04-22T14:19:26.177Z,7.87
2018-04-22T14:21:53.744Z,6.23
2018-04-22T14:24:22.031Z,9.57
2018-04-22T14:26:49.760Z,5.80
2018-04-22T14:29:17.311Z,10.63
2018-04-22T14:31:45.289Z,5.60
2018-04-22T14:34:12.799Z,8.27
2018-04-22T14:36:40.365Z,7.30
2018-04-22T14:39:07.883Z,6.30
2018-04-22T14:41:35.402Z,6.33
2018-04-22T14:44:14.817Z,8.73
2018-04-22T14:46:43.095Z,7.10
2018-04-22T14:49:10.639Z,6.00
2018-04-22T14:51:38.997Z,5.47
2018-04-22T14:54:06.508Z,8.23
2018-04-22T14:56:34.016Z,8.73
2018-04-22T14:59:01.563Z,7.03
2018-04-22T15:01:29.093Z,6.63
2018-04-22T15:03:56.602Z,10.03
2018-04-22T15:06:24.315Z,7.27
2018-04-22T15:08:52.099Z,8.47
2018-04-22T15:11:19.618Z,6.20
2018-04-22T15:13:47.154Z,9.83
2018-04-22T15:16:14.667Z,13.40
2018-04-22T15:18:42.193Z,10.60
2018-04-22T15:21:10.535Z,6.77
2018-04-22T15:23:38.042Z,8.43
2018-04-22T15:26:06.323Z,6.83
2018-04-22T15:28:33.859Z,11.00
2018-04-22T15:31:01.391Z,7.37
2018-04-22T15:33:29.677Z,9.47
2018-04-22T15:35:57.814Z,8.93
2018-04-22T15:38:25.332Z,6.63
2018-04-22T15:40:52.857Z,8.33
2018-04-22T15:43:20.395Z,7.87
2018-04-22T15:45:47.901Z,9.77
2018-04-22T15:48:15.406Z,8.60
2018-04-22T15:50:42.940Z,8.87
2018-04-22T15:53:10.550Z,6.57
2018-04-22T15:55:38.138Z,7.47
2018-04-22T15:58:05.681Z,9.33
2018-04-22T16:00:33.220Z,6.83
2018-04-22T16:03:00.747Z,8.37
2018-04-22T16:05:29.046Z,7.97
2018-04-22T16:07:57.313Z,6.30
2018-04-22T16:10:24.900Z,7.97
2018-04-22T16:12:52.491Z,11.63
2018-04-22T16:15:20.827Z,6.17
2018-04-22T16:17:48.348Z,9.50
2018-04-22T16:20:15.866Z,6.73
2018-04-22T16:22:43.462Z,7.90
2018-04-22T16:25:10.962Z,6.57
2018-04-22T16:27:39.263Z,6.30
2018-04-22T16:30:06.823Z,9.90
2018-04-22T16:32:34.325Z,7.47
2018-04-22T16:35:01.846Z,9.00
2018-04-22T16:37:29.710Z,13.00
2018-04-22T16:39:57.231Z,15.73
2018-04-22T16:42:24.752Z,18.03
2018-04-22T16:44:52.296Z,12.23
2018-04-22T16:47:19.819Z,12.93
2018-04-22T16:49:48.108Z,10.70
2018-04-22T16:52:15.671Z,10.63
2018-04-22T16:54:44.762Z,8.32
2018-04-22T16:57:13.037Z,11.43
2018-04-22T16:59:40.574Z,13.67
2018-04-22T17:02:08.240Z,12.50
2018-04-22T17:04:35.762Z,11.60
2018-04-22T17:07:03.335Z,15.93
2018-04-22T17:09:30.853Z,10.27
2018-04-22T17:11:58.578Z,9.43
2018-04-22T17:14:26.233Z,10.07
2018-04-22T17:16:53.780Z,10.23
2018-04-22T17:19:22.009Z,8.87
2018-04-22T17:21:49.526Z,10.30
2018-04-22T17:24:17.186Z,11.67
2018-04-22T17:26:44.707Z,11.03
2018-04-22T17:29:12.252Z,11.90
2018-04-22T17:31:40.545Z,10.10
2018-04-22T17:34:08.103Z,10.73
2018-04-22T17:36:36.435Z,9.90
2018-04-22T17:39:03.974Z,8.27
2018-04-22T17:41:31.503Z,11.03
2018-04-22T17:43:59.032Z,10.33
2018-04-22T17:46:26.568Z,8.93
2018-04-22T17:48:54.091Z,12.07
2018-04-22T17:51:21.623Z,15.17
2018-04-22T17:53:49.909Z,12.10
2018-04-22T17:56:18.242Z,10.27
2018-04-22T17:58:45.755Z,11.80
2018-04-22T18:01:14.100Z,16.90
2018-04-22T18:03:41.661Z,11.43
2018-04-22T18:06:09.246Z,11.73
2018-04-22T18:08:36.788Z,14.33
2018-04-22T18:11:04.349Z,12.77
2018-04-22T18:13:31.910Z,12.97
2018-04-22T18:15:59.427Z,13.83
2018-04-22T18:18:26.958Z,15.20
2018-04-22T18:20:54.516Z,18.53
2018-04-22T18:23:22.072Z,16.73
2018-04-22T18:25:49.637Z,14.20
2018-04-22T18:28:17.974Z,14.63
2018-04-22T18:30:45.518Z,16.70
2018-04-22T18:33:13.082Z,14.70
2018-04-22T18:35:40.693Z,15.20
2018-04-22T18:38:08.214Z,18.17
2018-04-22T18:40:35.834Z,15.77
2018-04-22T18:43:03.358Z,15.13
2018-04-22T18:45:30.895Z,17.63
2018-04-22T18:47:58.443Z,15.87
2018-04-22T18:50:25.975Z,15.67
2018-04-22T18:52:53.536Z,16.03
2018-04-22T18:55:21.847Z,14.67
2018-04-22T18:57:49.415Z,15.80
2018-04-22T19:00:17.744Z,14.70
2018-04-22T19:02:46.056Z,15.37
2018-04-22T19:05:13.625Z,12.97
2018-04-22T19:07:41.170Z,15.07
2018-04-22T19:10:08.704Z,13.63
2018-04-22T19:12:36.990Z,15.00
2018-04-22T19:15:04.728Z,13.30
2018-04-22T19:17:32.246Z,13.73
2018-04-22T19:19:59.805Z,15.00
2018-04-22T19:22:27.388Z,16.13
2018-04-22T19:24:54.930Z,15.40
2018-04-22T19:27:22.461Z,13.17
2018-04-22T19:29:50.062Z,13.40
2018-04-22T19:32:17.594Z,13.90
2018-04-22T19:34:45.936Z,12.53
2018-04-22T19:37:13.424Z,11.97
2018-04-22T19:39:40.977Z,14.97
2018-04-22T19:42:09.284Z,14.07
2018-04-22T19:44:36.795Z,13.47
2018-04-22T19:47:04.325Z,13.90
2018-04-22T19:49:31.864Z,12.87
2018-04-22T19:51:59.391Z,13.30
2018-04-22T19:54:26.907Z,13.17
2018-04-22T19:56:54.437Z,14.00
2018-04-22T19:59:21.952Z,16.13
2018-04-22T20:01:49.505Z,16.37
2018-04-22T20:04:17.819Z,15.60
2018-04-22T20:06:46.151Z,14.87
2018-04-22T20:09:14.641Z,13.83
2018-04-22T20:11:42.195Z,15.53
2018-04-22T20:14:09.794Z,16.67
2018-04-22T20:16:38.251Z,16.37
2018-04-22T20:19:05.834Z,16.47
2018-04-22T20:21:34.190Z,18.73
2018-04-22T20:24:01.742Z,15.90
2018-04-22T20:26:29.254Z,16.37
2018-04-22T20:28:56.779Z,17.73
2018-04-22T20:31:24.349Z,18.67
2018-04-22T20:33:52.617Z,17.10
2018-04-22T20:36:20.140Z,16.63
2018-04-22T20:38:47.726Z,21.10
2018-04-22T20:41:15.241Z,16.57
2018-04-22T20:43:43.538Z,17.53
2018-04-22T20:46:11.733Z,20.20
2018-04-22T20:48:39.247Z,19.70
2018-04-22T20:51:06.769Z,19.57
2018-04-22T20:53:34.358Z,19.67
2018-04-22T20:56:02.642Z,19.33
2018-04-22T20:58:30.158Z,19.67
2018-04-22T21:00:57.684Z,20.17
2018-04-22T21:03:25.365Z,19.67
2018-04-22T21:05:52.842Z,21.30
2018-04-22T21:08:20.400Z,18.03
2018-04-22T21:10:47.905Z,19.87
2018-04-22T21:13:15.458Z,17.80
2018-04-22T21:15:43.038Z,20.83
2018-04-22T21:18:11.325Z,19.60
2018-04-22T21:20:38.843Z,22.07
2018-04-22T21:23:06.374Z,20.77
2018-04-22T21:25:33.901Z,21.30
2018-04-22T21:28:02.216Z,24.47
2018-04-22T21:30:29.763Z,22.97
2018-04-22T21:32:57.336Z,22.03
2018-04-22T21:35:24.848Z,22.87
2018-04-22T21:37:52.385Z,23.40
2018-04-22T21:40:19.899Z,21.37
2018-04-22T21:42:47.486Z,21.67
2018-04-22T21:45:15.054Z,22.23
2018-04-22T21:47:42.558Z,23.37
2018-04-22T21:50:10.066Z,23.60
2018-04-22T21:52:37.612Z,21.37
2018-04-22T21:55:05.142Z,21.63
2018-04-22T21:57:32.670Z,20.40
2018-04-22T22:00:00.219Z,21.53
2018-04-22T22:02:27.773Z,21.63
2018-04-22T22:04:55.303Z,23.10
2018-04-22T22:07:22.813Z,22.93
2018-04-22T22:09:50.354Z,23.00
2018-04-22T22:12:17.889Z,22.43
2018-04-22T22:14:45.414Z,22.30
2018-04-22T22:17:13.722Z,22.80
2018-04-22T22:19:41.231Z,23.13
2018-04-22T22:22:08.806Z,23.63
2018-04-22T22:24:36.333Z,24.33
2018-04-22T22:27:03.837Z,27.63
2018-04-22T22:29:31.347Z,25.87
2018-04-22T22:31:58.911Z,25.47
2018-04-22T22:34:26.444Z,32.70
2018-04-22T22:36:53.999Z,29.93
2018-04-22T22:39:21.539Z,30.07
2018-04-22T22:41:49.822Z,24.03
2018-04-22T22:44:17.342Z,29.53
2018-04-22T22:46:44.874Z,21.77
2018-04-22T22:49:13.175Z,22.63
2018-04-22T22:51:40.682Z,16.20
2018-04-22T22:54:08.271Z,15.70
2018-04-22T22:56:35.828Z,16.77
2018-04-22T22:59:03.362Z,15.23
2018-04-22T23:01:31.678Z,15.23
2018-04-22T23:03:59.278Z,15.00
2018-04-22T23:06:26.783Z,12.60
2018-04-22T23:08:54.326Z,13.83
2018-04-22T23:11:21.852Z,16.40
2018-04-22T23:13:49.370Z,16.73
2018-04-22T23:16:16.920Z,15.13
2018-04-22T23:18:45.724Z,15.70
2018-04-22T23:21:13.238Z,14.17
2018-04-22T23:23:40.770Z,13.53
2018-04-22T23:26:08.271Z,10.97
2018-04-22T23:28:35.775Z,14.00
2018-04-22T23:31:03.313Z,11.40
2018-04-22T23:33:30.813Z,11.87
2018-04-22T23:35:58.353Z,13.17
2018-04-22T23:38:25.861Z,13.07
2018-04-22T23:40:53.375Z,13.63
2018-04-22T23:43:20.902Z,11.27
2018-04-22T23:45:49.175Z,14.00
2018-04-22T23:48:16.722Z,14.70
2018-04-22T23:50:44.270Z,15.40
2018-04-22T23:53:11.810Z,11.13
2018-04-22T23:55:39.322Z,13.47
2018-04-22T23:58:06.855Z,12.60
